createdAt,value
2019-03-19T00:02:09.450Z,86.60
2019-03-19T00:04:42.468Z,87.20
2019-03-19T00:07:15.285Z,86.80
2019-03-19T00:09:48.405Z,87.00
2019-03-19T00:12:21.361Z,87.90
2019-03-19T00:14:55.480Z,87.10
2019-03-19T00:17:28.571Z,86.70
2019-03-19T00:20:01.858Z,86.60
2019-03-19T00:22:34.921Z,86.20
2019-03-19T00:25:08.280Z,85.80
2019-03-19T00:27:41.192Z,85.70
2019-03-19T00:30:14.798Z,85.90
2019-03-19T00:32:48.006Z,85.90
2019-03-19T00:35:20.888Z,87.10
2019-03-19T00:37:54.378Z,86.50
2019-03-19T00:40:27.381Z,86.10
2019-03-19T00:43:00.347Z,87.00
2019-03-19T00:45:33.363Z,87.90
2019-03-19T00:48:06.284Z,89.20
2019-03-19T00:50:39.222Z,89.30
2019-03-19T00:53:12.120Z,88.80
2019-03-19T00:55:45.124Z,89.70
2019-03-19T00:58:18.243Z,90.00
2019-03-19T01:00:51.199Z,90.00
2019-03-19T01:03:24.383Z,89.60
2019-03-19T01:05:57.468Z,90.10
2019-03-19T01:08:30.405Z,89.90
2019-03-19T01:11:03.480Z,89.60
2019-03-19T01:13:36.313Z,89.40
2019-03-19T01:16:09.354Z,89.70
2019-03-19T01:18:42.529Z,89.70
2019-03-19T01:21:15.245Z,89.70
2019-03-19T01:23:48.294Z,90.00
2019-03-19T01:26:22.359Z,89.80
2019-03-19T01:28:56.036Z,89.20
2019-03-19T01:31:28.983Z,89.00
2019-03-19T01:34:01.947Z,88.60
2019-03-19T01:36:35.308Z,88.40
2019-03-19T01:39:09.258Z,88.70
2019-03-19T01:41:42.514Z,88.80
2019-03-19T01:44:15.381Z,89.50
2019-03-19T01:46:48.379Z,89.70
2019-03-19T01:49:21.194Z,89.90
2019-03-19T01:51:54.022Z,90.00
2019-03-19T01:54:26.942Z,90.00
2019-03-19T01:57:00.030Z,90.00
2019-03-19T01:59:33.271Z,90.00
2019-03-19T02:02:06.205Z,90.10
2019-03-19T02:04:39.183Z,90.00
2019-03-19T02:07:12.536Z,90.00
2019-03-19T02:09:45.647Z,90.20
2019-03-19T02:12:18.451Z,90.40
2019-03-19T02:14:51.326Z,90.70
2019-03-19T02:17:24.106Z,90.90
2019-03-19T02:19:56.712Z,91.00
2019-03-19T02:22:29.480Z,91.30
2019-03-19T02:25:02.500Z,91.60
2019-03-19T02:27:35.436Z,91.00
2019-03-19T02:30:09.649Z,91.40
2019-03-19T02:32:42.362Z,91.00
2019-03-19T02:35:15.422Z,91.40
2019-03-19T02:37:48.308Z,91.50
2019-03-19T02:40:21.332Z,91.20
2019-03-19T02:42:54.188Z,91.10
2019-03-19T02:45:26.832Z,90.90
2019-03-19T02:47:59.796Z,90.40
2019-03-19T02:50:32.766Z,90.20
2019-03-19T02:53:05.521Z,90.40
2019-03-19T02:55:38.383Z,90.50
2019-03-19T02:58:11.090Z,90.60
2019-03-19T03:00:44.064Z,90.40
2019-03-19T03:03:16.749Z,90.60
2019-03-19T03:05:50.937Z,90.70
2019-03-19T03:08:23.935Z,90.90
2019-03-19T03:10:56.710Z,91.20
2019-03-19T03:13:29.477Z,91.00
2019-03-19T03:16:02.253Z,91.40
2019-03-19T03:18:34.996Z,90.90
2019-03-19T03:21:07.987Z,91.20
2019-03-19T03:23:40.757Z,91.20
2019-03-19T03:26:13.629Z,91.40
2019-03-19T03:28:46.526Z,91.70
2019-03-19T03:31:19.388Z,91.60
2019-03-19T03:33:52.552Z,91.80
2019-03-19T03:36:25.620Z,92.10
2019-03-19T03:38:58.393Z,91.90
2019-03-19T03:41:31.183Z,92.00
2019-03-19T03:44:04.075Z,91.90
2019-03-19T03:46:36.899Z,91.70
2019-03-19T03:49:09.692Z,91.90
2019-03-19T03:51:42.497Z,92.00
2019-03-19T03:54:15.326Z,92.50
2019-03-19T03:57:01.225Z,92.50
2019-03-19T03:59:24.037Z,92.50
2019-03-19T04:01:57.018Z,92.40
2019-03-19T04:04:29.937Z,92.40
2019-03-19T04:07:03.003Z,92.40
2019-03-19T04:09:35.730Z,92.30
2019-03-19T04:12:08.473Z,92.10
2019-03-19T04:14:41.351Z,92.00
2019-03-19T04:17:14.577Z,92.10
2019-03-19T04:19:47.467Z,92.30
2019-03-19T04:22:20.220Z,92.50
2019-03-19T04:24:52.935Z,92.30
2019-03-19T04:27:25.814Z,92.10
2019-03-19T04:29:58.762Z,92.00
2019-03-19T04:32:31.549Z,92.20
2019-03-19T04:35:04.626Z,91.80
2019-03-19T04:37:37.679Z,91.60
2019-03-19T04:40:11.538Z,91.80
2019-03-19T04:42:44.258Z,92.20
2019-03-19T04:45:17.408Z,91.60
2019-03-19T04:47:50.251Z,91.80
2019-03-19T04:50:23.143Z,92.00
2019-03-19T04:52:56.112Z,91.70
2019-03-19T04:55:28.925Z,91.60
2019-03-19T04:58:03.091Z,91.30
2019-03-19T05:00:35.959Z,91.60
2019-03-19T05:03:08.955Z,91.10
2019-03-19T05:05:41.856Z,91.30
2019-03-19T05:08:14.847Z,91.20
2019-03-19T05:10:47.606Z,91.00
2019-03-19T05:13:20.435Z,91.50
2019-03-19T05:15:53.710Z,91.30
2019-03-19T05:18:26.576Z,91.10
2019-03-19T05:20:59.333Z,91.20
2019-03-19T05:23:33.303Z,91.20
2019-03-19T05:26:06.232Z,91.10
2019-03-19T05:28:39.660Z,90.60
2019-03-19T05:31:12.715Z,90.60
2019-03-19T05:33:45.983Z,91.10
2019-03-19T05:36:19.081Z,90.30
2019-03-19T05:38:52.129Z,89.80
2019-03-19T05:41:25.255Z,89.60
2019-03-19T05:43:58.323Z,89.00
2019-03-19T05:46:31.220Z,87.80
2019-03-19T05:49:03.999Z,87.30
2019-03-19T05:51:37.289Z,87.40
2019-03-19T05:54:10.236Z,87.10
2019-03-19T05:56:43.018Z,86.30
2019-03-19T05:59:17.529Z,86.80
2019-03-19T06:01:50.321Z,87.00
2019-03-19T06:04:23.242Z,87.00
2019-03-19T06:06:56.484Z,85.70
2019-03-19T06:09:29.457Z,85.20
2019-03-19T06:12:02.212Z,85.20
2019-03-19T06:14:35.101Z,85.00
2019-03-19T06:17:08.137Z,84.40
2019-03-19T06:19:41.232Z,83.90
2019-03-19T06:22:14.157Z,84.10
2019-03-19T06:24:47.324Z,84.10
2019-03-19T06:27:20.568Z,83.20
2019-03-19T06:29:53.757Z,82.10
2019-03-19T06:32:26.919Z,81.60
2019-03-19T06:35:00.807Z,81.00
2019-03-19T06:37:34.107Z,80.30
2019-03-19T06:40:07.908Z,80.00
2019-03-19T06:42:40.992Z,79.30
2019-03-19T06:45:16.202Z,78.00
2019-03-19T06:47:49.718Z,77.30
2019-03-19T06:50:23.054Z,77.00
2019-03-19T06:52:57.671Z,77.20
2019-03-19T06:55:30.798Z,76.00
2019-03-19T06:58:10.968Z,76.10
2019-03-19T07:00:38.987Z,75.20
2019-03-19T07:03:11.875Z,74.30
2019-03-19T07:05:45.045Z,75.10
2019-03-19T07:08:18.370Z,74.50
2019-03-19T07:10:52.491Z,74.00
2019-03-19T07:13:26.541Z,74.00
2019-03-19T07:15:59.892Z,73.80
2019-03-19T07:18:33.856Z,71.70
2019-03-19T07:21:07.454Z,71.30
2019-03-19T07:23:40.972Z,71.40
2019-03-19T07:26:14.603Z,71.40
2019-03-19T07:28:48.014Z,70.80
2019-03-19T07:31:30.485Z,70.40
2019-03-19T07:33:56.462Z,70.70
2019-03-19T07:36:30.166Z,70.60
2019-03-19T07:39:04.770Z,70.50
2019-03-19T07:41:38.101Z,69.70
2019-03-19T07:44:12.015Z,69.00
2019-03-19T07:46:46.029Z,69.00
2019-03-19T07:49:19.325Z,68.60
2019-03-19T07:51:53.581Z,67.80
2019-03-19T07:54:27.338Z,67.70
2019-03-19T07:57:01.165Z,66.70
2019-03-19T07:59:34.605Z,67.40
2019-03-19T08:02:08.339Z,67.10
2019-03-19T08:04:41.531Z,66.70
2019-03-19T08:07:14.513Z,66.00
2019-03-19T08:09:47.472Z,65.50
2019-03-19T08:12:20.775Z,65.70
2019-03-19T08:14:54.035Z,65.20
2019-03-19T08:17:27.857Z,64.60
2019-03-19T08:20:01.891Z,64.50
2019-03-19T08:22:34.967Z,64.40
2019-03-19T08:25:09.130Z,63.90
2019-03-19T08:27:42.332Z,63.70
2019-03-19T08:30:17.683Z,63.80
2019-03-19T08:32:51.062Z,64.00
2019-03-19T08:35:24.223Z,61.80
2019-03-19T08:37:57.505Z,61.50
2019-03-19T08:40:30.722Z,61.50
2019-03-19T08:43:06.770Z,61.40
2019-03-19T08:45:41.399Z,61.80
2019-03-19T08:48:14.248Z,62.40
2019-03-19T08:50:47.950Z,62.70
2019-03-19T08:53:21.211Z,63.30
2019-03-19T08:55:54.238Z,63.00
2019-03-19T08:58:27.629Z,62.50
2019-03-19T09:01:00.836Z,62.70
2019-03-19T09:03:34.082Z,63.20
2019-03-19T09:06:08.658Z,63.50
2019-03-19T09:08:41.984Z,64.10
2019-03-19T09:11:14.897Z,63.80
2019-03-19T09:13:48.023Z,63.40
2019-03-19T09:16:22.277Z,63.90
2019-03-19T09:18:57.496Z,62.90
2019-03-19T09:21:30.579Z,63.10
2019-03-19T09:24:03.974Z,62.60
2019-03-19T09:26:37.392Z,61.70
2019-03-19T09:29:16.875Z,62.10
2019-03-19T09:31:45.198Z,62.00
2019-03-19T09:34:18.377Z,61.30
2019-03-19T09:36:57.359Z,59.80
2019-03-19T09:39:26.331Z,58.80
2019-03-19T09:41:59.494Z,58.90
2019-03-19T09:44:32.869Z,59.20
2019-03-19T09:47:06.340Z,60.20
2019-03-19T09:49:39.470Z,61.20
2019-03-19T09:52:12.931Z,60.70
2019-03-19T09:54:45.788Z,59.60
2019-03-19T09:57:19.405Z,58.60
2019-03-19T09:59:52.562Z,59.10
2019-03-19T10:02:27.877Z,57.90
2019-03-19T10:05:01.295Z,57.60
2019-03-19T10:07:34.510Z,57.00
2019-03-19T10:10:09.155Z,57.40
2019-03-19T10:12:42.260Z,56.00
2019-03-19T10:15:17.112Z,56.60
2019-03-19T10:17:50.209Z,56.60
2019-03-19T10:20:24.044Z,56.40
2019-03-19T10:22:57.566Z,55.70
2019-03-19T10:25:30.821Z,56.00
2019-03-19T10:28:03.873Z,55.80
2019-03-19T10:30:37.235Z,56.00
2019-03-19T10:33:10.517Z,55.20
2019-03-19T10:35:43.491Z,55.30
2019-03-19T10:38:18.072Z,55.30
2019-03-19T10:40:51.309Z,54.60
2019-03-19T10:43:24.538Z,54.70
2019-03-19T10:45:57.673Z,54.00
2019-03-19T10:48:31.599Z,54.80
2019-03-19T10:51:04.627Z,54.20
2019-03-19T10:53:37.502Z,54.00
2019-03-19T10:56:10.710Z,54.40
2019-03-19T10:58:44.149Z,52.80
2019-03-19T11:01:17.746Z,53.40
2019-03-19T11:03:52.245Z,52.60
2019-03-19T11:06:25.376Z,52.30
2019-03-19T11:08:58.681Z,52.50
2019-03-19T11:11:31.899Z,52.10
2019-03-19T11:14:05.340Z,52.20
2019-03-19T11:16:38.128Z,51.60
2019-03-19T11:19:11.441Z,51.60
2019-03-19T11:21:44.647Z,51.80
2019-03-19T11:24:17.633Z,51.30
2019-03-19T11:26:50.561Z,51.30
2019-03-19T11:29:23.753Z,51.70
2019-03-19T11:31:56.774Z,51.10
2019-03-19T11:34:29.657Z,51.00
2019-03-19T11:37:02.568Z,51.70
2019-03-19T11:39:35.651Z,51.50
2019-03-19T11:42:08.630Z,50.30
2019-03-19T11:44:42.922Z,50.90
2019-03-19T11:47:15.906Z,50.70
2019-03-19T11:49:50.326Z,50.50
2019-03-19T11:52:23.218Z,51.40
2019-03-19T11:54:56.315Z,50.30
2019-03-19T11:57:29.293Z,49.60
2019-03-19T12:00:10.906Z,49.10
2019-03-19T12:02:37.439Z,49.80
2019-03-19T12:05:11.526Z,49.40
2019-03-19T12:07:45.825Z,49.50
2019-03-19T12:10:19.005Z,49.50
2019-03-19T12:12:52.293Z,49.70
2019-03-19T12:15:25.457Z,48.80
2019-03-19T12:17:58.895Z,48.90
2019-03-19T12:20:32.003Z,48.00
2019-03-19T12:23:06.532Z,48.50
2019-03-19T12:25:40.318Z,48.20
2019-03-19T12:28:13.389Z,48.40
2019-03-19T12:30:46.455Z,48.30
2019-03-19T12:33:20.138Z,47.70
2019-03-19T12:35:53.333Z,47.60
2019-03-19T12:38:26.567Z,47.80
2019-03-19T12:40:59.848Z,47.60
2019-03-19T12:43:33.466Z,48.20
2019-03-19T12:46:07.041Z,47.70
2019-03-19T12:48:40.301Z,47.60
2019-03-19T12:51:13.412Z,47.70
2019-03-19T12:53:46.574Z,47.60
2019-03-19T12:56:20.876Z,47.70
2019-03-19T12:58:53.994Z,47.00
2019-03-19T13:01:28.716Z,47.50
2019-03-19T13:04:02.029Z,48.00
2019-03-19T13:06:35.682Z,47.80
2019-03-19T13:09:10.625Z,47.30
2019-03-19T13:11:44.283Z,47.70
2019-03-19T13:14:17.439Z,48.00
2019-03-19T13:16:51.850Z,48.10
2019-03-19T13:19:25.438Z,47.80
2019-03-19T13:21:58.847Z,47.80
2019-03-19T13:24:32.023Z,48.20
2019-03-19T13:27:05.423Z,47.00
2019-03-19T13:29:38.651Z,48.00
2019-03-19T13:32:12.110Z,47.50
2019-03-19T13:34:45.562Z,48.10
2019-03-19T13:37:19.009Z,48.00
2019-03-19T13:39:52.380Z,47.40
2019-03-19T13:42:25.915Z,47.00
2019-03-19T13:44:59.151Z,47.60
2019-03-19T13:47:32.609Z,47.30
2019-03-19T13:50:07.012Z,47.80
2019-03-19T13:52:40.305Z,47.70
2019-03-19T13:55:15.103Z,47.40
2019-03-19T13:57:48.058Z,47.90
2019-03-19T14:00:21.469Z,48.50
2019-03-19T14:02:54.698Z,49.20
2019-03-19T14:05:28.166Z,49.60
2019-03-19T14:08:01.338Z,50.10
2019-03-19T14:10:34.815Z,49.90
2019-03-19T14:13:08.036Z,50.80
2019-03-19T14:15:41.750Z,50.50
2019-03-19T14:18:14.792Z,50.70
2019-03-19T14:20:48.044Z,50.90
2019-03-19T14:23:21.140Z,51.00
2019-03-19T14:25:54.160Z,51.10
2019-03-19T14:28:33.862Z,51.10
2019-03-19T14:31:08.936Z,51.60
2019-03-19T14:33:41.831Z,51.40
2019-03-19T14:36:15.108Z,52.10
2019-03-19T14:38:48.835Z,52.10
2019-03-19T14:41:21.991Z,52.50
2019-03-19T14:43:54.964Z,51.90
2019-03-19T14:46:28.322Z,52.20
2019-03-19T14:49:01.428Z,52.20
2019-03-19T14:51:34.857Z,52.10
2019-03-19T14:54:10.483Z,52.10
2019-03-19T14:56:43.992Z,51.90
2019-03-19T14:59:18.670Z,52.00
2019-03-19T15:01:51.784Z,52.10
2019-03-19T15:04:25.389Z,52.20
2019-03-19T15:06:58.563Z,52.10
2019-03-19T15:09:32.025Z,52.20
2019-03-19T15:12:05.699Z,51.90
2019-03-19T15:14:39.018Z,51.90
2019-03-19T15:17:12.571Z,50.80
2019-03-19T15:19:45.710Z,51.30
2019-03-19T15:22:18.594Z,50.80
2019-03-19T15:24:52.155Z,51.00
2019-03-19T15:27:25.258Z,50.70
2019-03-19T15:29:58.597Z,50.60
2019-03-19T15:32:31.686Z,50.50
2019-03-19T15:35:05.072Z,49.90
2019-03-19T15:37:38.194Z,49.80
2019-03-19T15:40:13.334Z,50.00
2019-03-19T15:42:46.729Z,50.50
2019-03-19T15:45:20.128Z,50.50
2019-03-19T15:47:53.692Z,50.50
2019-03-19T15:50:27.144Z,50.60
2019-03-19T15:53:00.756Z,51.00
2019-03-19T15:55:34.656Z,50.70
2019-03-19T15:58:08.053Z,51.20
2019-03-19T16:00:41.616Z,51.50
2019-03-19T16:03:14.494Z,52.10
2019-03-19T16:05:48.013Z,52.10
2019-03-19T16:08:21.770Z,52.20
2019-03-19T16:10:55.391Z,52.70
2019-03-19T16:13:29.980Z,52.70
2019-03-19T16:16:03.356Z,52.80
2019-03-19T16:18:36.336Z,52.60
2019-03-19T16:21:09.510Z,53.20
2019-03-19T16:23:42.831Z,53.50
2019-03-19T16:26:16.242Z,54.10
2019-03-19T16:28:49.876Z,53.30
2019-03-19T16:31:23.325Z,53.60
2019-03-19T16:33:56.327Z,54.10
2019-03-19T16:36:29.652Z,54.50
2019-03-19T16:39:02.734Z,55.10
2019-03-19T16:41:36.382Z,55.30
2019-03-19T16:44:09.361Z,55.30
2019-03-19T16:46:42.997Z,55.70
2019-03-19T16:49:16.482Z,55.90
2019-03-19T16:51:50.107Z,56.30
2019-03-19T16:54:23.486Z,56.70
2019-03-19T16:56:57.012Z,56.90
2019-03-19T16:59:30.083Z,56.90
2019-03-19T17:02:03.589Z,57.10
2019-03-19T17:04:36.732Z,57.20
2019-03-19T17:07:09.767Z,58.00
2019-03-19T17:09:43.406Z,57.70
2019-03-19T17:12:16.560Z,57.80
2019-03-19T17:14:49.542Z,58.10
2019-03-19T17:17:22.625Z,58.40
2019-03-19T17:19:55.958Z,58.60
2019-03-19T17:22:28.982Z,58.60
2019-03-19T17:25:02.104Z,58.80
2019-03-19T17:27:35.204Z,59.10
2019-03-19T17:30:17.359Z,59.30
2019-03-19T17:32:50.783Z,59.60
2019-03-19T17:35:24.085Z,59.90
2019-03-19T17:37:57.362Z,60.10
2019-03-19T17:40:40.555Z,61.00
2019-03-19T17:43:05.391Z,61.20
2019-03-19T17:45:38.744Z,60.80
2019-03-19T17:48:16.427Z,61.70
2019-03-19T17:50:47.972Z,62.40
2019-03-19T17:53:22.096Z,63.00
2019-03-19T17:55:55.206Z,63.40
2019-03-19T17:58:28.270Z,63.20
2019-03-19T18:01:01.333Z,63.30
2019-03-19T18:03:34.982Z,64.60
2019-03-19T18:06:08.376Z,64.70
2019-03-19T18:08:41.792Z,65.00
2019-03-19T18:11:15.419Z,65.50
2019-03-19T18:13:48.799Z,65.80
2019-03-19T18:16:22.011Z,66.10
2019-03-19T18:18:55.324Z,66.40
2019-03-19T18:21:28.451Z,66.60
2019-03-19T18:24:03.009Z,67.30
2019-03-19T18:26:36.261Z,67.40
2019-03-19T18:30:17.957Z,68.40
2019-03-19T18:32:51.461Z,68.60
2019-03-19T18:35:24.725Z,68.90
2019-03-19T18:37:57.958Z,69.80
2019-03-19T18:40:31.147Z,68.80
2019-03-19T18:43:05.001Z,69.00
2019-03-19T18:45:38.138Z,69.50
2019-03-19T18:48:11.368Z,70.20
2019-03-19T18:50:44.515Z,69.90
2019-03-19T18:53:17.607Z,69.80
2019-03-19T18:55:50.896Z,69.60
2019-03-19T18:58:25.583Z,69.80
2019-03-19T19:00:58.824Z,69.70
2019-03-19T19:03:32.009Z,69.90
2019-03-19T19:06:06.072Z,70.40
2019-03-19T19:08:39.482Z,71.00
2019-03-19T19:11:12.497Z,72.30
2019-03-19T19:13:45.945Z,73.30
2019-03-19T19:16:19.496Z,74.50
2019-03-19T19:18:53.416Z,75.10
2019-03-19T19:21:28.311Z,75.80
2019-03-19T19:24:01.816Z,76.00
2019-03-19T19:26:35.827Z,76.30
2019-03-19T19:29:09.114Z,76.70
2019-03-19T19:31:42.342Z,77.00
2019-03-19T19:34:15.478Z,77.20
2019-03-19T19:36:54.529Z,78.20
2019-03-19T19:39:27.812Z,78.40
2019-03-19T19:42:01.300Z,78.90
2019-03-19T19:44:34.986Z,79.40
2019-03-19T19:47:08.358Z,80.00
2019-03-19T19:49:41.706Z,80.40
2019-03-19T19:52:14.989Z,80.70
2019-03-19T19:54:49.547Z,81.00
2019-03-19T19:57:24.200Z,81.50
2019-03-19T19:59:57.504Z,81.70
2019-03-19T20:02:31.153Z,81.80
2019-03-19T20:05:04.584Z,82.50
2019-03-19T20:07:37.959Z,83.70
2019-03-19T20:10:14.644Z,83.20
2019-03-19T20:12:48.547Z,83.30
2019-03-19T20:15:22.092Z,83.30
2019-03-19T20:17:55.334Z,83.50
2019-03-19T20:20:28.971Z,83.60
2019-03-19T20:23:02.378Z,84.10
2019-03-19T20:25:35.899Z,83.70
2019-03-19T20:28:08.855Z,83.90
2019-03-19T20:33:43.481Z,84.80
2019-03-19T20:36:16.510Z,84.50
2019-03-19T20:38:49.684Z,85.00
2019-03-19T20:41:22.717Z,85.40
2019-03-19T20:43:56.845Z,86.00
2019-03-19T20:46:30.716Z,86.60
2019-03-19T20:49:03.643Z,86.80
2019-03-19T20:51:37.029Z,86.90
2019-03-19T20:54:10.722Z,87.20
2019-03-19T20:56:44.012Z,86.70
2019-03-19T20:59:17.220Z,86.70
2019-03-19T21:01:50.165Z,86.60
2019-03-19T21:04:23.102Z,86.90
2019-03-19T21:06:56.436Z,86.90
2019-03-19T21:09:29.107Z,87.00
2019-03-19T21:12:02.077Z,87.10
2019-03-19T21:14:35.405Z,87.30
2019-03-19T21:17:08.583Z,87.60
2019-03-19T21:19:41.593Z,87.90
2019-03-19T21:22:15.530Z,87.80
2019-03-19T21:24:48.694Z,88.20
2019-03-19T21:27:21.611Z,88.40
2019-03-19T21:29:54.616Z,88.80
2019-03-19T21:32:27.888Z,88.90
2019-03-19T21:35:00.791Z,89.00
2019-03-19T21:37:34.344Z,89.00
2019-03-19T21:40:08.061Z,88.90
2019-03-19T21:42:42.953Z,89.10
2019-03-19T21:45:16.013Z,89.50
2019-03-19T21:47:49.169Z,90.30
2019-03-19T21:50:22.198Z,90.20
2019-03-19T21:52:55.116Z,90.60
2019-03-19T21:55:27.960Z,90.80
2019-03-19T21:58:00.808Z,90.70
2019-03-19T22:00:33.806Z,90.80
2019-03-19T22:03:06.541Z,90.70
2019-03-19T22:05:39.366Z,90.70
2019-03-19T22:08:12.222Z,90.30
2019-03-19T22:10:44.870Z,90.50
2019-03-19T22:13:17.776Z,90.30
2019-03-19T22:15:50.769Z,90.20
2019-03-19T22:18:23.693Z,90.20
2019-03-19T22:20:56.807Z,90.10
2019-03-19T22:23:29.726Z,90.10
2019-03-19T22:26:02.506Z,90.10
2019-03-19T22:28:35.500Z,90.00
2019-03-19T22:31:08.581Z,90.00
2019-03-19T22:33:41.502Z,90.40
2019-03-19T22:36:14.713Z,90.00
2019-03-19T22:38:47.676Z,90.10
2019-03-19T22:41:20.607Z,90.00
2019-03-19T22:43:53.449Z,90.10
2019-03-19T22:46:26.498Z,90.00
2019-03-19T22:48:59.416Z,90.00
2019-03-19T22:51:32.287Z,90.00
2019-03-19T22:54:05.505Z,90.00
2019-03-19T22:56:39.327Z,89.70
2019-03-19T22:59:12.384Z,89.30
2019-03-19T23:01:45.295Z,89.30
2019-03-19T23:04:26.882Z,89.20
2019-03-19T23:06:52.454Z,89.30
2019-03-19T23:09:25.447Z,89.70
2019-03-19T23:11:58.356Z,90.00
2019-03-19T23:14:31.603Z,90.20
2019-03-19T23:17:05.012Z,90.30
2019-03-19T23:19:37.880Z,90.20
2019-03-19T23:22:10.614Z,90.50
2019-03-19T23:24:44.917Z,90.70
2019-03-19T23:27:17.797Z,91.40
2019-03-19T23:29:50.465Z,91.20
2019-03-19T23:32:24.814Z,91.40
2019-03-19T23:34:58.056Z,91.40
2019-03-19T23:37:31.128Z,91.50
2019-03-19T23:40:03.921Z,91.70
2019-03-19T23:42:37.095Z,92.10
2019-03-19T23:45:10.599Z,91.90
2019-03-19T23:47:45.105Z,91.70
2019-03-19T23:50:17.961Z,91.70
2019-03-19T23:52:50.818Z,92.00
2019-03-19T23:55:23.673Z,92.50
2019-03-19T23:57:56.481Z,92.40
